sensor_id;sensor_type;location;lat;lon;timestamp;temperature;humidity
26182;DHT22;13927;51.534;11.866;2023-04-01T00:00:17;10.10;99.90
26182;DHT22;13927;51.534;11.866;2023-04-01T00:02:43;10.00;99.90
26182;DHT22;13927;51.534;11.866;2023-04-01T00:05:09;10.00;99.90
26182;DHT22;13927;51.534;11.866;2023-04-01T00:07:36;10.00;99.90
26182;DHT22;13927;51.534;11.866;2023-04-01T00:10:03;10.00;99.90
26182;DHT22;13927;51.534;11.866;2023-04-01T00:12:29;10.00;99.90
26182;DHT22;13927;51.534;11.866;2023-04-01T00:14:55;10.00;99.90
26182;DHT22;13927;51.534;11.866;2023-04-01T00:17:21;10.00;99.90
26182;DHT22;13927;51.534;11.866;2023-04-01T00:19:47;10.00;99.90
26182;DHT22;13927;51.534;11.866;2023-04-01T00:22:13;9.90;99.90
26182;DHT22;13927;51.534;11.866;2023-04-01T00:24:39;9.90;99.90
26182;DHT22;13927;51.534;11.866;2023-04-01T00:27:04;10.00;99.90
26182;DHT22;13927;51.534;11.866;2023-04-01T00:29:30;9.90;99.90
26182;DHT22;13927;51.534;11.866;2023-04-01T00:31:57;9.90;99.90
26182;DHT22;13927;51.534;11.866;2023-04-01T00:34:22;9.90;99.90
26182;DHT22;13927;51.534;11.866;2023-04-01T00:36:49;9.90;99.90
26182;DHT22;13927;51.534;11.866;2023-04-01T00:39:16;9.90;99.90
26182;DHT22;13927;51.534;11.866;2023-04-01T00:41:41;9.90;99.90
26182;DHT22;13927;51.534;11.866;2023-04-01T00:44:18;9.80;99.90
26182;DHT22;13927;51.534;11.866;2023-04-01T00:46:51;9.80;99.90
26182;DHT22;13927;51.534;11.866;2023-04-01T00:49:19;9.80;99.90
26182;DHT22;13927;51.534;11.866;2023-04-01T00:51:46;9.80;99.90
26182;DHT22;13927;51.534;11.866;2023-04-01T00:54:14;9.80;99.90
26182;DHT22;13927;51.534;11.866;2023-04-01T00:56:44;9.80;99.90
26182;DHT22;13927;51.534;11.866;2023-04-01T00:59:29;9.80;99.90
26182;DHT22;13927;51.534;11.866;2023-04-01T01:01:57;9.80;99.90
26182;DHT22;13927;51.534;11.866;2023-04-01T01:04:24;9.80;99.90
26182;DHT22;13927;51.534;11.866;2023-04-01T01:07:27;9.80;99.90
26182;DHT22;13927;51.534;11.866;2023-04-01T01:10:20;9.80;99.90
26182;DHT22;13927;51.534;11.866;2023-04-01T01:15:37;9.70;99.90
26182;DHT22;13927;51.534;11.866;2023-04-01T01:18:19;9.70;99.90
26182;DHT22;13927;51.534;11.866;2023-04-01T01:37:55;9.60;99.90
26182;DHT22;13927;51.534;11.866;2023-04-01T01:40:23;9.60;99.90
26182;DHT22;13927;51.534;11.866;2023-04-01T01:42:51;9.60;99.90
26182;DHT22;13927;51.534;11.866;2023-04-01T01:45:18;9.60;99.90
26182;DHT22;13927;51.534;11.866;2023-04-01T01:47:45;9.60;99.90
26182;DHT22;13927;51.534;11.866;2023-04-01T01:50:12;9.60;99.90
26182;DHT22;13927;51.534;11.866;2023-04-01T01:52:38;9.60;99.90
26182;DHT22;13927;51.534;11.866;2023-04-01T01:55:22;9.60;99.90
26182;DHT22;13927;51.534;11.866;2023-04-01T01:57:50;9.60;99.90
26182;DHT22;13927;51.534;11.866;2023-04-01T02:00:16;9.60;99.90
26182;DHT22;13927;51.534;11.866;2023-04-01T02:02:43;9.60;99.90
26182;DHT22;13927;51.534;11.866;2023-04-01T02:05:10;9.50;99.90
26182;DHT22;13927;51.534;11.866;2023-04-01T02:07:37;9.60;99.90
26182;DHT22;13927;51.534;11.866;2023-04-01T02:10:04;9.60;99.90
26182;DHT22;13927;51.534;11.866;2023-04-01T02:12:30;9.60;99.90
26182;DHT22;13927;51.534;11.866;2023-04-01T02:14:58;9.60;99.90
26182;DHT22;13927;51.534;11.866;2023-04-01T02:17:27;9.60;99.90
26182;DHT22;13927;51.534;11.866;2023-04-01T02:20:02;9.60;99.90
26182;DHT22;13927;51.534;11.866;2023-04-01T02:22:33;9.60;99.90
26182;DHT22;13927;51.534;11.866;2023-04-01T02:25:02;9.50;99.90
26182;DHT22;13927;51.534;11.866;2023-04-01T02:27:35;9.60;99.90
26182;DHT22;13927;51.534;11.866;2023-04-01T02:30:01;9.50;99.90
26182;DHT22;13927;51.534;11.866;2023-04-01T02:32:28;9.60;99.90
26182;DHT22;13927;51.534;11.866;2023-04-01T02:34:55;9.60;99.90
26182;DHT22;13927;51.534;11.866;2023-04-01T02:37:21;9.60;99.90
26182;DHT22;13927;51.534;11.866;2023-04-01T02:39:47;9.60;99.90
26182;DHT22;13927;51.534;11.866;2023-04-01T02:42:13;9.60;99.90
26182;DHT22;13927;51.534;11.866;2023-04-01T02:44:39;9.60;99.90
26182;DHT22;13927;51.534;11.866;2023-04-01T02:47:04;9.60;99.90
26182;DHT22;13927;51.534;11.866;2023-04-01T02:49:30;9.60;99.90
26182;DHT22;13927;51.534;11.866;2023-04-01T02:51:56;9.60;99.90
26182;DHT22;13927;51.534;11.866;2023-04-01T02:54:21;9.60;99.90
26182;DHT22;13927;51.534;11.866;2023-04-01T02:56:47;9.60;99.90
26182;DHT22;13927;51.534;11.866;2023-04-01T02:59:13;9.60;99.90
26182;DHT22;13927;51.534;11.866;2023-04-01T03:01:39;9.60;99.90
26182;DHT22;13927;51.534;11.866;2023-04-01T03:04:04;9.60;99.90
26182;DHT22;13927;51.534;11.866;2023-04-01T03:06:30;9.60;99.90
26182;DHT22;13927;51.534;11.866;2023-04-01T03:08:56;9.60;99.90
26182;DHT22;13927;51.534;11.866;2023-04-01T03:11:22;9.60;99.90
26182;DHT22;13927;51.534;11.866;2023-04-01T03:13:48;9.60;99.90
26182;DHT22;13927;51.534;11.866;2023-04-01T03:16:14;9.60;99.90
26182;DHT22;13927;51.534;11.866;2023-04-01T03:18:39;9.60;99.90
26182;DHT22;13927;51.534;11.866;2023-04-01T03:21:12;9.60;99.90
26182;DHT22;13927;51.534;11.866;2023-04-01T03:23:39;9.60;99.90
26182;DHT22;13927;51.534;11.866;2023-04-01T03:26:06;9.60;99.90
26182;DHT22;13927;51.534;11.866;2023-04-01T03:28:31;9.50;99.90
26182;DHT22;13927;51.534;11.866;2023-04-01T03:30:57;9.50;99.90
26182;DHT22;13927;51.534;11.866;2023-04-01T03:33:24;9.50;99.90
26182;DHT22;13927;51.534;11.866;2023-04-01T03:35:49;9.50;99.90
26182;DHT22;13927;51.534;11.866;2023-04-01T03:38:17;9.50;99.90
26182;DHT22;13927;51.534;11.866;2023-04-01T03:40:44;9.50;99.90
26182;DHT22;13927;51.534;11.866;2023-04-01T03:43:10;9.50;99.90
26182;DHT22;13927;51.534;11.866;2023-04-01T03:45:47;9.50;99.90
26182;DHT22;13927;51.534;11.866;2023-04-01T03:48:14;9.60;99.90
26182;DHT22;13927;51.534;11.866;2023-04-01T03:50:39;9.60;99.90
26182;DHT22;13927;51.534;11.866;2023-04-01T03:53:05;9.60;99.90
26182;DHT22;13927;51.534;11.866;2023-04-01T03:55:31;9.60;99.90
26182;DHT22;13927;51.534;11.866;2023-04-01T03:57:58;9.60;99.90
26182;DHT22;13927;51.534;11.866;2023-04-01T04:00:24;9.60;99.90
26182;DHT22;13927;51.534;11.866;2023-04-01T04:02:50;9.70;99.90
26182;DHT22;13927;51.534;11.866;2023-04-01T04:05:16;9.70;99.90
26182;DHT22;13927;51.534;11.866;2023-04-01T04:07:41;9.70;99.90
26182;DHT22;13927;51.534;11.866;2023-04-01T04:10:07;9.70;99.90
26182;DHT22;13927;51.534;11.866;2023-04-01T04:12:33;9.70;99.90
26182;DHT22;13927;51.534;11.866;2023-04-01T04:14:58;9.70;99.90
26182;DHT22;13927;51.534;11.866;2023-04-01T04:17:24;9.70;99.90
26182;DHT22;13927;51.534;11.866;2023-04-01T04:19:50;9.60;99.90
26182;DHT22;13927;51.534;11.866;2023-04-01T04:22:15;9.70;99.90
26182;DHT22;13927;51.534;11.866;2023-04-01T04:24:41;9.70;99.90
26182;DHT22;13927;51.534;11.866;2023-04-01T04:27:07;9.60;99.90
26182;DHT22;13927;51.534;11.866;2023-04-01T04:29:33;9.60;99.90
26182;DHT22;13927;51.534;11.866;2023-04-01T04:31:59;9.60;99.90
26182;DHT22;13927;51.534;11.866;2023-04-01T04:34:26;9.60;99.90
26182;DHT22;13927;51.534;11.866;2023-04-01T04:36:52;9.60;99.90
26182;DHT22;13927;51.534;11.866;2023-04-01T04:39:18;9.60;99.90
26182;DHT22;13927;51.534;11.866;2023-04-01T04:41:43;9.60;99.90
26182;DHT22;13927;51.534;11.866;2023-04-01T04:44:09;9.60;99.90
26182;DHT22;13927;51.534;11.866;2023-04-01T04:46:35;9.60;99.90
26182;DHT22;13927;51.534;11.866;2023-04-01T04:49:02;9.60;99.90
26182;DHT22;13927;51.534;11.866;2023-04-01T04:51:27;9.60;99.90
26182;DHT22;13927;51.534;11.866;2023-04-01T04:53:53;9.60;99.90
26182;DHT22;13927;51.534;11.866;2023-04-01T04:56:19;9.60;99.90
26182;DHT22;13927;51.534;11.866;2023-04-01T04:58:46;9.60;99.90
26182;DHT22;13927;51.534;11.866;2023-04-01T05:01:12;9.60;99.90
26182;DHT22;13927;51.534;11.866;2023-04-01T05:03:39;9.60;99.90
26182;DHT22;13927;51.534;11.866;2023-04-01T05:06:05;9.60;99.90
26182;DHT22;13927;51.534;11.866;2023-04-01T05:08:32;9.60;99.90
26182;DHT22;13927;51.534;11.866;2023-04-01T05:10:58;9.60;99.90
26182;DHT22;13927;51.534;11.866;2023-04-01T05:13:24;9.60;99.90
26182;DHT22;13927;51.534;11.866;2023-04-01T05:15:50;9.60;99.90
26182;DHT22;13927;51.534;11.866;2023-04-01T05:18:16;9.60;99.90
26182;DHT22;13927;51.534;11.866;2023-04-01T05:20:46;9.60;99.90
26182;DHT22;13927;51.534;11.866;2023-04-01T05:23:13;9.60;99.90
26182;DHT22;13927;51.534;11.866;2023-04-01T05:25:38;9.60;99.90
26182;DHT22;13927;51.534;11.866;2023-04-01T05:28:04;9.60;99.90
26182;DHT22;13927;51.534;11.866;2023-04-01T05:30:30;9.60;99.90
26182;DHT22;13927;51.534;11.866;2023-04-01T05:32:56;9.70;99.90
26182;DHT22;13927;51.534;11.866;2023-04-01T05:35:22;9.70;99.90
26182;DHT22;13927;51.534;11.866;2023-04-01T05:37:48;9.70;99.90
26182;DHT22;13927;51.534;11.866;2023-04-01T05:40:15;9.80;99.90
26182;DHT22;13927;51.534;11.866;2023-04-01T05:42:40;9.80;99.90
26182;DHT22;13927;51.534;11.866;2023-04-01T05:45:07;9.90;99.90
26182;DHT22;13927;51.534;11.866;2023-04-01T05:47:33;9.90;99.90
26182;DHT22;13927;51.534;11.866;2023-04-01T05:49:59;9.90;99.90
26182;DHT22;13927;51.534;11.866;2023-04-01T05:52:25;10.00;99.90
26182;DHT22;13927;51.534;11.866;2023-04-01T05:54:51;10.10;99.90
26182;DHT22;13927;51.534;11.866;2023-04-01T05:57:19;10.10;99.90
26182;DHT22;13927;51.534;11.866;2023-04-01T05:59:46;10.10;99.90
26182;DHT22;13927;51.534;11.866;2023-04-01T06:02:11;10.20;99.90
26182;DHT22;13927;51.534;11.866;2023-04-01T06:04:39;10.20;99.90
26182;DHT22;13927;51.534;11.866;2023-04-01T06:07:09;10.30;99.90
26182;DHT22;13927;51.534;11.866;2023-04-01T06:09:40;10.30;99.90
26182;DHT22;13927;51.534;11.866;2023-04-01T06:20:36;10.60;99.90
26182;DHT22;13927;51.534;11.866;2023-04-01T06:23:59;10.70;99.90
26182;DHT22;13927;51.534;11.866;2023-04-01T06:26:21;10.70;99.90
26182;DHT22;13927;51.534;11.866;2023-04-01T06:37:03;10.80;99.90
26182;DHT22;13927;51.534;11.866;2023-04-01T06:43:32;10.80;99.90
26182;DHT22;13927;51.534;11.866;2023-04-01T06:45:45;10.80;99.90
26182;DHT22;13927;51.534;11.866;2023-04-01T06:56:28;10.90;99.90
26182;DHT22;13927;51.534;11.866;2023-04-01T06:59:16;10.90;99.90
26182;DHT22;13927;51.534;11.866;2023-04-01T07:01:43;10.90;99.90
26182;DHT22;13927;51.534;11.866;2023-04-01T07:04:14;11.00;99.90
26182;DHT22;13927;51.534;11.866;2023-04-01T07:06:53;11.00;99.90
26182;DHT22;13927;51.534;11.866;2023-04-01T07:09:31;11.00;99.90
26182;DHT22;13927;51.534;11.866;2023-04-01T07:12:02;11.00;99.90
26182;DHT22;13927;51.534;11.866;2023-04-01T07:14:37;11.00;99.90
26182;DHT22;13927;51.534;11.866;2023-04-01T07:17:07;11.10;99.90
26182;DHT22;13927;51.534;11.866;2023-04-01T07:20:11;11.10;99.90
26182;DHT22;13927;51.534;11.866;2023-04-01T07:26:27;11.20;99.90
26182;DHT22;13927;51.534;11.866;2023-04-01T12:16:42;13.80;99.90
26182;DHT22;13927;51.534;11.866;2023-04-01T13:31:06;13.40;99.90
26182;DHT22;13927;51.534;11.866;2023-04-01T14:38:55;13.80;99.90
26182;DHT22;13927;51.534;11.866;2023-04-01T15:02:56;14.10;99.90
26182;DHT22;13927;51.534;11.866;2023-04-01T15:08:23;14.10;99.90
26182;DHT22;13927;51.534;11.866;2023-04-01T15:10:55;14.10;99.90
26182;DHT22;13927;51.534;11.866;2023-04-01T15:16:20;13.90;99.90
26182;DHT22;13927;51.534;11.866;2023-04-01T15:19:15;13.80;99.90
26182;DHT22;13927;51.534;11.866;2023-04-01T15:21:49;13.70;99.90
26182;DHT22;13927;51.534;11.866;2023-04-01T15:24:24;13.50;99.90
26182;DHT22;13927;51.534;11.866;2023-04-01T15:30:44;13.40;99.90
26182;DHT22;13927;51.534;11.866;2023-04-01T15:41:23;13.30;99.90
26182;DHT22;13927;51.534;11.866;2023-04-01T15:43:55;13.30;99.90
26182;DHT22;13927;51.534;11.866;2023-04-01T15:46:40;13.20;99.90
26182;DHT22;13927;51.534;11.866;2023-04-01T15:49:51;13.30;99.90
26182;DHT22;13927;51.534;11.866;2023-04-01T16:02:52;13.30;99.90
26182;DHT22;13927;51.534;11.866;2023-04-01T16:05:54;13.30;99.90
26182;DHT22;13927;51.534;11.866;2023-04-01T16:17:25;13.20;99.90
26182;DHT22;13927;51.534;11.866;2023-04-01T16:20:22;13.20;99.90
26182;DHT22;13927;51.534;11.866;2023-04-01T16:25:51;13.10;99.90
26182;DHT22;13927;51.534;11.866;2023-04-01T16:29:03;13.10;99.90
26182;DHT22;13927;51.534;11.866;2023-04-01T16:31:32;13.00;99.90
26182;DHT22;13927;51.534;11.866;2023-04-01T16:34:08;13.00;99.90
26182;DHT22;13927;51.534;11.866;2023-04-01T16:36:42;12.90;99.90
26182;DHT22;13927;51.534;11.866;2023-04-01T16:42:31;12.90;99.90
26182;DHT22;13927;51.534;11.866;2023-04-01T16:45:17;12.90;99.90
26182;DHT22;13927;51.534;11.866;2023-04-01T16:47:48;12.90;99.90
26182;DHT22;13927;51.534;11.866;2023-04-01T16:50:22;12.80;99.90
26182;DHT22;13927;51.534;11.866;2023-04-01T16:52:55;12.90;99.90
26182;DHT22;13927;51.534;11.866;2023-04-01T16:58:07;12.80;99.90
26182;DHT22;13927;51.534;11.866;2023-04-01T17:00:41;12.80;99.90
26182;DHT22;13927;51.534;11.866;2023-04-01T17:03:17;12.70;99.90
26182;DHT22;13927;51.534;11.866;2023-04-01T17:09:00;12.60;99.90
26182;DHT22;13927;51.534;11.866;2023-04-01T17:14:17;12.50;99.90
26182;DHT22;13927;51.534;11.866;2023-04-01T17:22:45;12.40;99.90
26182;DHT22;13927;51.534;11.866;2023-04-01T17:25:34;12.30;99.90
26182;DHT22;13927;51.534;11.866;2023-04-01T17:28:29;12.30;99.90
26182;DHT22;13927;51.534;11.866;2023-04-01T17:33:59;12.20;99.90
26182;DHT22;13927;51.534;11.866;2023-04-01T17:36:45;12.20;99.90
26182;DHT22;13927;51.534;11.866;2023-04-01T17:41:56;12.00;99.90
26182;DHT22;13927;51.534;11.866;2023-04-01T17:47:31;11.90;99.90
26182;DHT22;13927;51.534;11.866;2023-04-01T17:50:23;11.90;99.90
26182;DHT22;13927;51.534;11.866;2023-04-01T17:52:59;11.80;99.90
26182;DHT22;13927;51.534;11.866;2023-04-01T17:55:48;11.70;99.90
26182;DHT22;13927;51.534;11.866;2023-04-01T17:58:45;11.60;99.90
26182;DHT22;13927;51.534;11.866;2023-04-01T18:03:54;11.50;99.90
26182;DHT22;13927;51.534;11.866;2023-04-01T18:12:53;11.50;99.90
26182;DHT22;13927;51.534;11.866;2023-04-01T18:20:37;11.40;99.90
26182;DHT22;13927;51.534;11.866;2023-04-01T18:23:24;11.40;99.90
26182;DHT22;13927;51.534;11.866;2023-04-01T18:26:01;11.40;99.90
26182;DHT22;13927;51.534;11.866;2023-04-01T18:30:56;11.30;99.90
26182;DHT22;13927;51.534;11.866;2023-04-01T18:33:30;11.20;99.90
26182;DHT22;13927;51.534;11.866;2023-04-01T18:36:07;10.90;99.90
26182;DHT22;13927;51.534;11.866;2023-04-01T18:38:49;10.60;99.90
26182;DHT22;13927;51.534;11.866;2023-04-01T18:50:24;10.10;99.90
26182;DHT22;13927;51.534;11.866;2023-04-01T18:52:56;10.00;99.90
26182;DHT22;13927;51.534;11.866;2023-04-01T18:55:29;9.90;99.90
26182;DHT22;13927;51.534;11.866;2023-04-01T19:01:07;9.60;99.90
26182;DHT22;13927;51.534;11.866;2023-04-01T19:03:40;9.50;99.90
26182;DHT22;13927;51.534;11.866;2023-04-01T19:06:18;9.40;99.90
26182;DHT22;13927;51.534;11.866;2023-04-01T19:08:50;9.30;99.90
26182;DHT22;13927;51.534;11.866;2023-04-01T19:11:26;9.30;99.90
26182;DHT22;13927;51.534;11.866;2023-04-01T19:14:01;9.20;99.90
26182;DHT22;13927;51.534;11.866;2023-04-01T19:19:26;9.10;99.90
26182;DHT22;13927;51.534;11.866;2023-04-01T19:25:12;9.10;99.90
26182;DHT22;13927;51.534;11.866;2023-04-01T19:38:39;8.90;99.90
26182;DHT22;13927;51.534;11.866;2023-04-01T19:43:50;8.80;99.90
26182;DHT22;13927;51.534;11.866;2023-04-01T19:46:37;8.70;99.90
26182;DHT22;13927;51.534;11.866;2023-04-01T20:00:34;8.70;99.90
26182;DHT22;13927;51.534;11.866;2023-04-01T20:08:36;8.60;99.90
26182;DHT22;13927;51.534;11.866;2023-04-01T20:13:49;8.60;99.90
26182;DHT22;13927;51.534;11.866;2023-04-01T20:16:17;8.50;99.90
26182;DHT22;13927;51.534;11.866;2023-04-01T20:18:54;8.50;99.90
26182;DHT22;13927;51.534;11.866;2023-04-01T20:21:33;8.50;99.90
26182;DHT22;13927;51.534;11.866;2023-04-01T20:24:06;8.50;99.90
26182;DHT22;13927;51.534;11.866;2023-04-01T20:26:51;8.40;99.90
26182;DHT22;13927;51.534;11.866;2023-04-01T20:30:13;8.30;99.90
26182;DHT22;13927;51.534;11.866;2023-04-01T20:32:26;8.30;99.90
26182;DHT22;13927;51.534;11.866;2023-04-01T20:41:05;8.00;99.90
26182;DHT22;13927;51.534;11.866;2023-04-01T20:46:30;8.00;99.90
26182;DHT22;13927;51.534;11.866;2023-04-01T20:49:20;8.00;99.90
26182;DHT22;13927;51.534;11.866;2023-04-01T20:52:15;7.90;99.90
26182;DHT22;13927;51.534;11.866;2023-04-01T20:54:56;7.90;99.90
26182;DHT22;13927;51.534;11.866;2023-04-01T21:03:39;7.70;99.90
26182;DHT22;13927;51.534;11.866;2023-04-01T21:12:05;7.70;99.90
26182;DHT22;13927;51.534;11.866;2023-04-01T21:17:38;7.60;99.90
26182;DHT22;13927;51.534;11.866;2023-04-01T21:23:12;7.60;99.90
26182;DHT22;13927;51.534;11.866;2023-04-01T21:31:59;7.40;99.90
26182;DHT22;13927;51.534;11.866;2023-04-01T21:53:44;7.40;99.90
26182;DHT22;13927;51.534;11.866;2023-04-01T21:56:36;7.40;99.90
26182;DHT22;13927;51.534;11.866;2023-04-01T22:02:05;7.10;99.90
26182;DHT22;13927;51.534;11.866;2023-04-01T22:04:51;7.00;99.90
26182;DHT22;13927;51.534;11.866;2023-04-01T22:07:20;6.90;99.90
26182;DHT22;13927;51.534;11.866;2023-04-01T22:09:59;6.80;99.90
26182;DHT22;13927;51.534;11.866;2023-04-01T22:12:57;6.70;99.90
26182;DHT22;13927;51.534;11.866;2023-04-01T22:18:31;6.70;99.90
26182;DHT22;13927;51.534;11.866;2023-04-01T22:23:54;6.60;99.90
26182;DHT22;13927;51.534;11.866;2023-04-01T22:26:38;6.60;99.90
26182;DHT22;13927;51.534;11.866;2023-04-01T22:29:12;6.60;99.90
26182;DHT22;13927;51.534;11.866;2023-04-01T22:31:49;6.60;99.90
26182;DHT22;13927;51.534;11.866;2023-04-01T22:34:39;6.60;99.90
26182;DHT22;13927;51.534;11.866;2023-04-01T22:40:17;6.70;99.90
26182;DHT22;13927;51.534;11.866;2023-04-01T22:48:40;6.60;99.90
26182;DHT22;13927;51.534;11.866;2023-04-01T22:56:53;6.50;99.90
26182;DHT22;13927;51.534;11.866;2023-04-01T22:59:41;6.40;99.90
26182;DHT22;13927;51.534;11.866;2023-04-01T23:04:43;6.40;99.90
26182;DHT22;13927;51.534;11.866;2023-04-01T23:09:54;6.40;99.90
26182;DHT22;13927;51.534;11.866;2023-04-01T23:12:21;6.30;99.90
26182;DHT22;13927;51.534;11.866;2023-04-01T23:14:52;6.40;99.90
26182;DHT22;13927;51.534;11.866;2023-04-01T23:25:42;6.30;99.90
26182;DHT22;13927;51.534;11.866;2023-04-01T23:30:58;6.20;99.90
26182;DHT22;13927;51.534;11.866;2023-04-01T23:33:28;6.20;99.90
26182;DHT22;13927;51.534;11.866;2023-04-01T23:36:02;6.20;99.90
26182;DHT22;13927;51.534;11.866;2023-04-01T23:38:40;6.10;99.90
26182;DHT22;13927;51.534;11.866;2023-04-01T23:41:09;6.20;99.90
26182;DHT22;13927;51.534;11.866;2023-04-01T23:43:43;6.20;99.90
26182;DHT22;13927;51.534;11.866;2023-04-01T23:46:10;6.10;99.90
26182;DHT22;13927;51.534;11.866;2023-04-01T23:48:41;6.00;99.90
26182;DHT22;13927;51.534;11.866;2023-04-01T23:51:27;6.00;99.90
26182;DHT22;13927;51.534;11.866;2023-04-01T23:54:14;5.90;99.90
26182;DHT22;13927;51.534;11.866;2023-04-01T23:56:44;5.80;99.90
26182;DHT22;13927;51.534;11.866;2023-04-01T23:59:18;5.80;99.90
